Time;durP1;ratioP1;P1;durP2;ratioP2;P2;SDS_P1;SDS_P2;PMS_P1;PMS_P2;Temp;Humidity;BMP_temperature;BMP_pressure;BME280_temperature;BME280_humidity;BME280_pressure;Samples;Min_cycle;Max_cycle;Signal;HPM_P1;HPM_P2
2021/06/17 00:01:14;;;;;;;14.37;8.30;;;20.20;1.00;;;;;;5033353;28;20424;-76
2021/06/17 00:03:56;;;;;;;10.50;7.90;;;20.20;1.00;;;;;;5033852;28;20426;-77
2021/06/17 00:06:22;;;;;;;17.63;9.57;;;20.10;1.00;;;;;;5034042;28;20474;-76
2021/06/17 00:09:14;;;;;;;11.40;8.60;;;20.10;1.00;;;;;;5033130;28;20970;-76
2021/06/17 00:12:14;;;;;;;17.93;8.80;;;20.10;1.00;;;;;;5034013;28;20210;-77
2021/06/17 00:15:14;;;;;;;18.63;9.23;;;20.10;1.00;;;;;;5033402;28;20402;-76
2021/06/17 00:17:42;;;;;;;21.77;9.80;;;20.00;1.00;;;;;;5033303;28;20398;-76
2021/06/17 00:20:27;;;;;;;18.67;9.27;;;20.00;1.00;;;;;;5033435;28;20399;-76
2021/06/17 00:22:57;;;;;;;12.03;8.20;;;20.00;1.00;;;;;;5033442;28;20760;-76
2021/06/17 00:25:27;;;;;;;17.80;9.10;;;19.90;1.00;;;;;;5033726;28;20393;-75
2021/06/17 00:27:53;;;;;;;16.70;8.87;;;19.90;1.00;;;;;;5033351;28;20408;-75
2021/06/17 00:30:20;;;;;;;11.17;7.50;;;19.80;1.00;;;;;;5033433;28;20377;-76
2021/06/17 00:32:56;;;;;;;10.33;8.40;;;19.80;1.00;;;;;;5032969;28;20393;-76
2021/06/17 00:35:28;;;;;;;12.60;9.10;;;;;;;;;;5033562;28;20468;-76
2021/06/17 00:37:58;;;;;;;13.93;8.67;;;19.80;1.00;;;;;;5033712;28;20941;-75
2021/06/17 00:40:24;;;;;;;17.33;9.20;;;19.70;1.00;;;;;;5033345;28;20422;-76
2021/06/17 00:42:52;;;;;;;14.90;9.20;;;19.70;1.00;;;;;;5033397;28;20399;-76
2021/06/17 00:45:29;;;;;;;24.40;9.30;;;19.60;1.00;;;;;;5033202;28;20406;-75
2021/06/17 00:47:56;;;;;;;17.07;9.33;;;19.60;1.00;;;;;;5047832;28;20421;-75
2021/06/17 00:50:33;;;;;;;12.90;9.67;;;19.60;1.00;;;;;;5053048;28;20437;-75
2021/06/17 00:53:25;;;;;;;16.23;9.40;;;19.50;1.00;;;;;;5053391;28;20446;-76
2021/06/17 00:56:02;;;;;;;24.30;9.70;;;19.50;1.00;;;;;;5039837;28;20848;-76
2021/06/17 00:58:32;;;;;;;28.57;9.40;;;19.50;1.00;;;;;;5032837;28;20463;-76
2021/06/17 01:01:02;;;;;;;15.17;9.33;;;19.40;1.00;;;;;;5033172;28;20390;-76
2021/06/17 01:03:50;;;;;;;14.97;10.13;;;19.40;1.00;;;;;;5034961;28;20451;-76
2021/06/17 01:06:27;;;;;;;21.43;10.03;;;;;;;;;;5037300;28;20510;-76
2021/06/17 01:09:32;;;;;;;16.90;10.30;;;19.30;1.00;;;;;;5036624;28;20393;-76
2021/06/17 01:12:20;;;;;;;20.60;9.10;;;19.30;1.00;;;;;;5036839;28;20405;-76
2021/06/17 01:15:06;;;;;;;14.70;8.73;;;19.20;1.00;;;;;;5036527;28;20397;-76
2021/06/17 01:17:39;;;;;;;12.90;8.87;;;19.20;1.00;;;;;;5036593;28;20398;-77
2021/06/17 01:20:25;;;;;;;15.80;9.40;;;19.20;1.00;;;;;;5036804;28;20385;-76
2021/06/17 01:23:28;;;;;;;25.30;10.17;;;19.20;1.00;;;;;;5036946;28;20808;-76
2021/06/17 01:26:13;;;;;;;14.70;9.70;;;19.10;1.00;;;;;;5036113;28;20436;-76
2021/06/17 01:29:02;;;;;;;16.93;10.10;;;19.10;1.00;;;;;;5036685;28;20558;-76
2021/06/17 01:31:44;;;;;;;14.77;8.63;;;19.10;1.00;;;;;;5036254;28;20393;-76
2021/06/17 01:34:28;;;;;;;27.17;10.83;;;;;;;;;;5036060;28;20401;-76
2021/06/17 01:37:07;;;;;;;12.63;9.13;;;19.00;1.00;;;;;;5051581;28;20432;-76
2021/06/17 01:39:56;;;;;;;24.90;9.80;;;19.00;1.00;;;;;;5055065;28;20468;-75
2021/06/17 01:42:24;;;;;;;15.47;9.13;;;18.90;1.00;;;;;;5056190;28;20393;-76
2021/06/17 01:45:21;;;;;;;13.40;9.40;;;18.90;1.00;;;;;;5056025;28;20424;-76
2021/06/17 01:47:48;;;;;;;26.53;11.10;;;18.90;1.00;;;;;;5056071;28;20404;-76
2021/06/17 01:50:25;;;;;;;17.57;9.80;;;18.80;1.00;;;;;;5051352;28;20425;-75
2021/06/17 01:53:26;;;;;;;13.20;8.80;;;18.90;1.00;;;;;;5036713;28;20415;-76
2021/06/17 01:55:57;;;;;;;19.50;9.87;;;18.80;1.00;;;;;;5034639;28;20427;-76
2021/06/17 01:58:38;;;;;;;18.47;9.90;;;18.80;1.00;;;;;;5035780;28;20491;-75
2021/06/17 02:01:05;;;;;;;24.70;10.70;;;18.80;1.00;;;;;;5035638;28;20372;-76
2021/06/17 02:03:41;;;;;;;14.93;9.20;;;18.70;1.00;;;;;;5035797;28;20394;-76
2021/06/17 02:06:09;;;;;;;28.43;10.80;;;18.70;1.00;;;;;;5035571;28;20420;-76
2021/06/17 02:08:35;;;;;;;20.63;9.80;;;18.70;1.00;;;;;;5035086;28;20425;-76
2021/06/17 02:11:01;;;;;;;25.67;9.93;;;18.70;1.00;;;;;;5034894;28;20915;-76
2021/06/17 02:13:40;;;;;;;14.87;9.50;;;18.70;1.00;;;;;;5035028;28;20427;-76
2021/06/17 02:16:10;;;;;;;16.50;8.90;;;18.70;1.00;;;;;;5035786;28;20891;-75
2021/06/17 02:18:38;;;;;;;12.93;9.77;;;18.70;1.00;;;;;;5035796;28;20460;-76
2021/06/17 02:21:09;;;;;;;14.73;9.53;;;18.70;1.00;;;;;;5035758;28;20390;-76
2021/06/17 02:23:37;;;;;;;25.40;11.27;;;18.60;1.00;;;;;;5035732;28;20376;-76
2021/06/17 02:26:05;;;;;;;18.40;9.20;;;18.60;1.00;;;;;;5035696;28;20404;-76
2021/06/17 02:28:42;;;;;;;18.90;9.27;;;18.60;1.00;;;;;;5035398;28;20456;-76
2021/06/17 02:31:28;;;;;;;10.93;8.90;;;18.60;1.00;;;;;;5050683;28;20431;-76
2021/06/17 02:33:55;;;;;;;14.93;9.27;;;;;;;;;;5035695;28;20878;-75
2021/06/17 02:36:27;;;;;;;14.80;9.50;;;18.60;1.00;;;;;;5035424;28;20372;-75
2021/06/17 02:38:57;;;;;;;17.97;9.97;;;18.60;1.00;;;;;;5035539;28;20504;-76
2021/06/17 02:41:50;;;;;;;19.83;9.50;;;18.60;1.00;;;;;;5038571;28;20415;-76
2021/06/17 02:45:02;;;;;;;20.33;9.83;;;18.50;1.00;;;;;;5054810;28;20408;-76
2021/06/17 02:48:02;;;;;;;14.00;9.40;;;18.50;1.00;;;;;;5055390;28;20391;-76
2021/06/17 02:50:40;;;;;;;14.40;9.40;;;18.50;1.00;;;;;;5053730;28;20523;-76
2021/06/17 02:53:14;;;;;;;12.17;9.17;;;18.50;1.00;;;;;;5055594;28;20430;-76
2021/06/17 02:55:57;;;;;;;21.40;10.87;;;18.50;1.00;;;;;;5054733;28;20898;-76
2021/06/17 02:58:45;;;;;;;12.80;8.93;;;18.50;1.00;;;;;;5054868;28;20444;-75
2021/06/17 03:01:20;;;;;;;29.10;11.30;;;18.50;1.00;;;;;;5054571;28;20395;-76
2021/06/17 03:04:16;;;;;;;30.90;10.07;;;18.50;1.00;;;;;;5054632;28;20391;-76
2021/06/17 03:06:57;;;;;;;23.97;9.40;;;18.50;1.00;;;;;;5034667;28;20412;-75
2021/06/17 03:09:33;;;;;;;20.13;10.03;;;18.50;1.00;;;;;;5034663;28;20400;-76
2021/06/17 03:12:38;;;;;;;14.03;8.00;;;18.50;1.00;;;;;;5034019;28;20412;-76
2021/06/17 03:15:50;;;;;;;16.60;9.30;;;18.50;1.00;;;;;;5045205;28;20433;-76
2021/06/17 03:19:08;;;;;;;17.60;8.90;;;18.50;1.00;;;;;;5054213;28;20871;-76
2021/06/17 03:21:43;;;;;;;32.17;11.07;;;18.50;1.00;;;;;;5034132;28;20402;-76
2021/06/17 03:24:30;;;;;;;13.87;9.27;;;18.50;1.00;;;;;;5034932;28;20395;-76
2021/06/17 03:26:58;;;;;;;15.40;9.47;;;18.50;1.00;;;;;;5033804;28;20371;-76
2021/06/17 03:29:34;;;;;;;14.07;9.80;;;18.60;1.00;;;;;;5033957;28;20408;-76
2021/06/17 03:32:03;;;;;;;12.17;9.17;;;18.60;1.00;;;;;;5034235;28;20827;-76
2021/06/17 03:34:41;;;;;;;15.40;9.50;;;18.60;1.00;;;;;;5042400;28;20767;-76
2021/06/17 03:37:21;;;;;;;26.17;10.23;;;18.60;1.00;;;;;;5053719;28;20438;-76
2021/06/17 03:39:59;;;;;;;16.60;11.00;;;18.70;1.00;;;;;;5054081;28;20885;-76
2021/06/17 03:42:26;;;;;;;20.07;10.00;;;18.70;1.00;;;;;;5053939;28;20557;-76
2021/06/17 03:45:03;;;;;;;13.67;9.33;;;18.70;1.00;;;;;;5054046;28;20430;-76
2021/06/17 03:47:42;;;;;;;21.63;9.73;;;18.70;1.00;;;;;;5053883;28;20446;-76
2021/06/17 03:50:09;;;;;;;15.77;10.00;;;;;;;;;;5042498;28;20413;-76
2021/06/17 03:52:39;;;;;;;20.50;9.40;;;18.70;1.00;;;;;;5034528;28;20398;-75
2021/06/17 03:58:28;;;;;;;15.00;8.67;;;18.70;1.00;;;;;;5033681;28;20469;-76
2021/06/17 04:01:38;;;;;;;19.33;9.57;;;18.80;1.00;;;;;;5034282;28;20937;-76
2021/06/17 04:04:20;;;;;;;12.60;9.23;;;18.80;1.00;;;;;;5046471;28;20461;-76
2021/06/17 04:06:59;;;;;;;14.60;9.37;;;18.80;1.00;;;;;;5053515;28;20404;-76
2021/06/17 04:12:54;;;;;;;11.40;8.70;;;18.80;1.00;;;;;;5053622;28;20427;-81
2021/06/17 04:15:21;;;;;;;26.40;9.50;;;18.90;1.00;;;;;;5053188;28;20400;-80
2021/06/17 04:18:20;;;;;;;11.67;8.80;;;;;;;;;;5044675;28;20426;-81
2021/06/17 04:24:09;;;;;;;17.30;8.30;;;18.90;1.00;;;;;;5052854;28;20409;-81
2021/06/17 04:29:58;;;;;;;14.70;8.93;;;19.00;1.00;;;;;;5053221;28;20434;-82
2021/06/17 04:35:47;;;;;;;10.00;7.90;;;19.00;1.00;;;;;;5045897;28;20493;-82
2021/06/17 04:38:16;;;;;;;14.10;8.87;;;19.10;1.00;;;;;;5051821;28;20467;-82
2021/06/17 04:40:42;;;;;;;18.93;9.57;;;;;;;;;;5051966;28;20400;-82
2021/06/17 04:43:38;;;;;;;14.63;8.93;;;19.20;1.00;;;;;;5052461;28;20400;-82
2021/06/17 04:46:04;;;;;;;13.07;8.67;;;;;;;;;;5052127;28;20419;-83
2021/06/17 04:48:56;;;;;;;12.00;7.80;;;19.20;1.00;;;;;;5043444;28;20418;-81
2021/06/17 04:52:02;;;;;;;12.00;8.70;;;19.30;1.00;;;;;;5031908;28;20442;-81
2021/06/17 04:54:27;;;;;;;19.33;9.00;;;19.40;1.00;;;;;;5047362;28;20417;-75
2021/06/17 04:56:53;;;;;;;21.40;9.53;;;;;;;;;;5052383;28;20502;-76
2021/06/17 04:59:20;;;;;;;12.27;8.60;;;19.50;1.00;;;;;;5053077;28;20190;-75
2021/06/17 05:01:58;;;;;;;14.33;8.13;;;19.60;1.00;;;;;;5051428;28;20761;-76
2021/06/17 05:04:34;;;;;;;14.73;8.80;;;19.60;1.00;;;;;;5052643;28;20487;-79
2021/06/17 05:16:37;;;;;;;9.70;7.50;;;19.80;1.00;;;;;;5052497;28;20405;-77
2021/06/17 05:19:02;;;;;;;18.00;8.60;;;20.00;1.00;;;;;;5052355;28;20461;-76
2021/06/17 05:21:28;;;;;;;12.30;8.13;;;20.10;1.00;;;;;;5048000;28;20163;-76
2021/06/17 05:30:38;;;;;;;15.33;7.77;;;20.50;1.00;;;;;;5052263;28;20386;-78
2021/06/17 05:33:08;;;;;;;10.70;7.00;;;20.60;1.00;;;;;;5052604;28;20402;-78
2021/06/17 05:35:34;;;;;;;14.73;7.53;;;20.70;1.00;;;;;;5048954;28;20172;-76
2021/06/17 05:38:02;;;;;;;12.07;8.27;;;20.90;1.00;;;;;;5047361;28;20472;-76
2021/06/17 05:40:29;;;;;;;9.00;7.13;;;;;;;;;;5052612;28;20192;-77
2021/06/17 05:42:55;;;;;;;9.60;7.03;;;;;;;;;;5052467;28;20387;-76
2021/06/17 05:45:20;;;;;;;10.70;7.50;;;21.30;1.00;;;;;;5052487;28;20392;-77
2021/06/17 05:47:56;;;;;;;11.77;7.20;;;21.40;1.00;;;;;;5040491;28;20963;-76
2021/06/17 05:50:22;;;;;;;11.77;6.93;;;;;;;;;;5054916;28;20165;-76
2021/06/17 05:53:15;;;;;;;10.40;7.20;;;21.70;1.00;;;;;;5055755;28;20400;-76
2021/06/17 05:56:02;;;;;;;12.03;7.90;;;21.80;1.00;;;;;;5071762;28;20422;-78
2021/06/17 05:59:20;;;;;;;22.87;8.00;;;21.90;1.00;;;;;;5054014;28;20978;-78
2021/06/17 06:01:46;;;;;;;7.57;6.20;;;;;;;;;;5052181;28;20486;-78
2021/06/17 06:04:11;;;;;;;7.90;6.30;;;22.20;1.00;;;;;;5043997;28;20489;-78
2021/06/17 06:06:37;;;;;;;14.33;7.27;;;;;;;;;;5054223;28;20820;-78
2021/06/17 06:09:03;;;;;;;9.90;6.50;;;22.40;1.00;;;;;;5053734;28;20182;-78
2021/06/17 06:11:30;;;;;;;14.70;7.27;;;22.50;1.00;;;;;;5036204;28;20415;-76
2021/06/17 06:13:56;;;;;;;9.10;6.37;;;22.60;1.00;;;;;;5050635;28;20921;-76
2021/06/17 06:16:21;;;;;;;13.47;6.83;;;22.70;1.00;;;;;;5055079;28;20440;-76
2021/06/17 06:18:47;;;;;;;11.33;6.83;;;;;;;;;;5052888;28;20193;-76
2021/06/17 06:21:14;;;;;;;14.83;6.93;;;23.00;1.00;;;;;;5050681;28;20642;-76
2021/06/17 06:23:40;;;;;;;12.57;7.60;;;23.00;1.00;;;;;;5053850;28;20877;-76
2021/06/17 06:26:08;;;;;;;13.03;7.33;;;23.20;1.00;;;;;;5054703;28;20391;-78
2021/06/17 06:28:34;;;;;;;6.70;5.70;;;23.30;1.00;;;;;;5054184;28;20445;-78
2021/06/17 06:31:00;;;;;;;10.50;6.10;;;;;;;;;;5053925;28;20506;-78
2021/06/17 06:33:26;;;;;;;8.60;6.87;;;23.50;1.00;;;;;;5052570;28;20168;-78
2021/06/17 06:35:52;;;;;;;10.60;5.97;;;23.60;1.00;;;;;;5054044;28;20519;-78
2021/06/17 06:38:18;;;;;;;10.30;6.30;;;23.70;1.00;;;;;;5054035;28;20590;-78
2021/06/17 06:40:44;;;;;;;14.10;6.20;;;;;;;;;;5053277;28;20505;-78
2021/06/17 06:43:15;;;;;;;7.70;5.90;;;23.90;1.00;;;;;;5053860;28;20319;-78
2021/06/17 06:45:40;;;;;;;8.70;6.47;;;24.10;1.00;;;;;;5054052;28;20416;-78
2021/06/17 06:48:07;;;;;;;6.20;5.30;;;24.20;1.00;;;;;;5053109;28;20875;-78
2021/06/17 06:50:33;;;;;;;10.77;5.70;;;24.40;1.00;;;;;;5037407;28;20265;-78
2021/06/17 06:53:02;;;;;;;9.00;5.73;;;24.50;1.00;;;;;;5037768;28;20412;-78
2021/06/17 06:55:28;;;;;;;19.30;6.83;;;24.60;1.00;;;;;;5053768;28;20449;-76
2021/06/17 06:57:55;;;;;;;6.20;5.10;;;24.60;1.00;;;;;;5053300;28;20819;-76
2021/06/17 07:00:21;;;;;;;10.30;5.37;;;24.80;1.00;;;;;;5052789;28;20182;-76
2021/06/17 07:02:47;;;;;;;8.60;5.80;;;24.90;99.90;;;;;;5053129;28;20895;-76
2021/06/17 07:05:13;;;;;;;10.20;5.57;;;;;;;;;;5051556;28;20418;-75
2021/06/17 07:07:40;;;;;;;7.73;5.27;;;25.20;1.00;;;;;;5053174;28;20402;-75
2021/06/17 07:10:07;;;;;;;6.97;5.57;;;25.30;99.90;;;;;;5050044;28;20446;-78
2021/06/17 07:12:33;;;;;;;6.40;5.53;;;25.40;99.90;;;;;;5037175;28;20438;-78
2021/06/17 07:14:59;;;;;;;7.47;5.60;;;25.50;99.90;;;;;;5033599;28;20402;-77
2021/06/17 07:17:25;;;;;;;9.70;6.10;;;25.60;99.90;;;;;;5033309;28;20218;-77
2021/06/17 07:19:54;;;;;;;8.70;6.30;;;25.80;99.90;;;;;;5046102;28;20980;-77
2021/06/17 07:22:20;;;;;;;6.73;4.83;;;26.00;99.90;;;;;;5053196;28;20553;-76
2021/06/17 07:24:46;;;;;;;9.47;6.20;;;;;;;;;;5051836;28;20443;-77
2021/06/17 07:27:11;;;;;;;8.10;5.63;;;26.20;99.90;;;;;;5051610;28;20202;-75
2021/06/17 07:29:37;;;;;;;6.77;5.70;;;26.20;99.90;;;;;;5041369;28;20418;-75
2021/06/17 07:32:04;;;;;;;9.27;5.53;;;26.20;99.90;;;;;;5053260;28;20166;-75
2021/06/17 07:34:32;;;;;;;6.90;5.47;;;26.30;99.90;;;;;;5053253;28;20170;-75
2021/06/17 07:36:58;;;;;;;10.40;6.00;;;26.50;99.90;;;;;;5053119;28;21002;-75
2021/06/17 07:39:24;;;;;;;5.53;4.83;;;;;;;;;;5053203;28;20533;-75
2021/06/17 07:41:50;;;;;;;7.97;5.77;;;26.70;99.90;;;;;;5073220;28;20531;-76
2021/06/17 07:44:16;;;;;;;7.70;5.20;;;;;;;;;;5072884;28;20392;-76
2021/06/17 07:46:41;;;;;;;8.70;5.23;;;27.00;99.90;;;;;;5045024;28;20187;-76
2021/06/17 07:49:07;;;;;;;12.33;5.43;;;;;;;;;;5032950;28;20400;-76
2021/06/17 07:51:34;;;;;;;7.97;5.17;;;;;;;;;;5031573;28;20188;-76
2021/06/17 07:54:00;;;;;;;8.03;4.83;;;27.30;99.90;;;;;;5050935;28;20914;-76
2021/06/17 07:56:28;;;;;;;9.07;5.40;;;27.60;99.90;;;;;;5048783;28;20414;-77
2021/06/17 07:58:53;;;;;;;6.57;5.00;;;27.60;99.90;;;;;;5053415;28;20451;-74
2021/06/17 08:01:19;;;;;;;8.33;5.50;;;27.70;99.90;;;;;;5051951;28;20736;-74
2021/06/17 08:03:45;;;;;;;9.57;4.93;;;27.90;99.90;;;;;;5052493;28;20165;-77
2021/06/17 08:06:10;;;;;;;11.33;5.17;;;28.10;99.90;;;;;;5048379;28;20189;-76
2021/06/17 08:08:36;;;;;;;5.63;4.73;;;28.20;99.90;;;;;;5041979;28;20202;-76
2021/06/17 08:11:02;;;;;;;8.10;5.27;;;28.30;99.90;;;;;;5049705;28;20211;-76
2021/06/17 08:13:27;;;;;;;8.63;4.33;;;28.30;99.90;;;;;;5052576;28;20182;-77
2021/06/17 08:15:53;;;;;;;6.40;4.90;;;28.50;99.90;;;;;;5052629;28;20241;-76
2021/06/17 08:18:19;;;;;;;11.00;5.00;;;28.50;99.90;;;;;;5051668;28;20200;-77
2021/06/17 08:20:44;;;;;;;6.17;4.83;;;28.50;99.90;;;;;;5052452;28;20568;-77
2021/06/17 08:23:10;;;;;;;5.90;5.27;;;28.70;99.90;;;;;;5051894;28;20246;-76
2021/06/17 08:25:36;;;;;;;7.10;4.97;;;28.80;99.90;;;;;;5052395;28;20639;-76
2021/06/17 08:28:06;;;;;;;6.53;5.27;;;29.00;99.90;;;;;;5052547;28;20170;-77
2021/06/17 08:30:33;;;;;;;5.63;4.40;;;29.10;99.90;;;;;;5042290;28;20442;-76
2021/06/17 08:32:59;;;;;;;12.13;5.20;;;29.30;99.90;;;;;;5049045;28;20495;-76
2021/06/17 08:35:32;;;;;;;7.10;4.87;;;;;;;;;;5052287;28;20465;-76
2021/06/17 08:37:59;;;;;;;5.20;4.70;;;29.50;99.90;;;;;;5049665;28;20215;-76
2021/06/17 08:40:30;;;;;;;5.70;5.10;;;29.60;99.90;;;;;;5047520;28;20441;-75
2021/06/17 08:42:59;;;;;;;11.30;5.37;;;29.60;99.90;;;;;;5039001;28;20432;-76
2021/06/17 08:45:26;;;;;;;7.33;5.10;;;29.60;99.90;;;;;;5032868;28;20609;-77
2021/06/17 08:47:52;;;;;;;11.90;5.47;;;;;;;;;;5048529;28;21201;-77
2021/06/17 08:50:18;;;;;;;5.30;4.33;;;29.90;99.90;;;;;;5048553;28;20434;-76
2021/06/17 08:52:47;;;;;;;6.00;4.10;;;;;;;;;;5043673;28;20959;-76
2021/06/17 08:55:24;;;;;;;6.87;4.70;;;30.00;99.90;;;;;;5038673;28;20225;-76
2021/06/17 08:57:52;;;;;;;4.60;4.20;;;30.00;99.90;;;;;;5052013;28;20596;-77
2021/06/17 09:00:23;;;;;;;8.40;4.30;;;30.10;99.90;;;;;;5051518;28;20406;-76
2021/06/17 09:02:56;;;;;;;5.83;4.03;;;30.00;99.90;;;;;;5041036;28;20434;-77
2021/06/17 09:05:22;;;;;;;6.63;3.80;;;30.30;99.90;;;;;;5052041;28;20517;-77
2021/06/17 09:07:49;;;;;;;8.70;4.47;;;30.30;99.90;;;;;;5050679;28;20410;-76
2021/06/17 09:10:15;;;;;;;11.13;4.37;;;30.50;99.90;;;;;;5069770;28;20402;-76
2021/06/17 09:12:45;;;;;;;4.90;4.40;;;30.50;99.90;;;;;;5058346;28;20438;-76
2021/06/17 09:15:12;;;;;;;9.10;4.57;;;30.60;99.90;;;;;;5050709;28;20434;-76
2021/06/17 09:17:38;;;;;;;5.30;4.17;;;30.60;99.90;;;;;;5051997;28;20395;-76
2021/06/17 09:20:05;;;;;;;7.63;3.77;;;30.70;99.90;;;;;;5051629;28;20398;-76
2021/06/17 09:22:31;;;;;;;11.20;4.73;;;30.70;99.90;;;;;;5043201;28;20429;-76
2021/06/17 09:24:57;;;;;;;4.47;3.87;;;30.90;99.90;;;;;;5033806;28;20395;-77
2021/06/17 09:27:40;;;;;;;4.70;4.07;;;30.80;99.90;;;;;;5039935;28;20422;-75
2021/06/17 09:30:12;;;;;;;4.40;3.80;;;31.10;99.90;;;;;;5055164;28;20916;-74
2021/06/17 09:32:46;;;;;;;11.20;3.90;;;31.20;99.90;;;;;;5053708;28;20415;-75
2021/06/17 09:35:16;;;;;;;4.43;3.67;;;31.30;99.90;;;;;;5054674;28;20390;-75
2021/06/17 09:37:42;;;;;;;4.27;3.90;;;31.50;99.90;;;;;;5051880;28;20438;-75
2021/06/17 09:40:29;;;;;;;5.93;3.53;;;31.60;99.90;;;;;;5055018;28;20489;-75
2021/06/17 09:43:16;;;;;;;9.30;4.50;;;31.60;99.90;;;;;;5050647;28;20208;-75
2021/06/17 09:45:57;;;;;;;6.33;3.93;;;31.60;99.90;;;;;;5043146;28;20912;-74
2021/06/17 09:48:40;;;;;;;9.00;4.30;;;31.50;99.90;;;;;;5040149;28;20898;-74
2021/06/17 09:51:27;;;;;;;3.70;3.40;;;31.50;99.90;;;;;;5055398;28;20417;-74
2021/06/17 09:54:15;;;;;;;4.17;3.73;;;31.60;99.90;;;;;;4993550;28;20413;-74
2021/06/17 09:56:42;;;;;;;6.30;3.80;;;31.60;99.90;;;;;;4916170;29;20971;-76
2021/06/17 09:59:10;;;;;;;4.30;3.53;;;31.70;99.90;;;;;;4915820;29;20473;-76
2021/06/17 10:01:45;;;;;;;7.03;3.87;;;31.90;99.90;;;;;;4915950;29;20420;-77
2021/06/17 10:04:13;;;;;;;5.40;3.80;;;31.90;99.90;;;;;;4915329;29;20431;-77
2021/06/17 10:06:41;;;;;;;9.83;4.50;;;32.00;99.90;;;;;;4915364;29;20417;-77
2021/06/17 10:09:11;;;;;;;4.40;4.00;;;32.20;99.90;;;;;;4915414;29;20460;-77
2021/06/17 10:11:39;;;;;;;6.33;4.00;;;32.30;99.90;;;;;;4915224;29;20586;-77
2021/06/17 10:14:06;;;;;;;7.03;4.00;;;32.20;99.90;;;;;;4916082;29;20440;-76
2021/06/17 10:16:32;;;;;;;5.73;4.10;;;32.40;99.90;;;;;;4915348;29;20933;-77
2021/06/17 10:18:59;;;;;;;10.67;4.67;;;32.50;99.90;;;;;;4915278;29;21050;-76
2021/06/17 10:21:27;;;;;;;16.63;5.23;;;32.50;99.90;;;;;;4914864;29;20804;-76
2021/06/17 10:23:57;;;;;;;5.67;3.80;;;32.60;99.90;;;;;;4916786;29;20515;-77
2021/06/17 10:26:40;;;;;;;8.20;4.40;;;;;;;;;;4916645;29;20402;-77
2021/06/17 10:29:23;;;;;;;10.33;4.97;;;32.80;99.90;;;;;;4916385;29;20452;-75
2021/06/17 10:31:52;;;;;;;15.67;5.13;;;32.80;99.90;;;;;;4965658;28;20414;-74
2021/06/17 10:34:24;;;;;;;5.10;3.97;;;32.90;99.90;;;;;;5032143;28;20440;-74
2021/06/17 10:37:10;;;;;;;8.43;4.57;;;33.00;99.90;;;;;;5053872;28;20410;-74
2021/06/17 10:39:54;;;;;;;7.10;4.17;;;33.00;99.90;;;;;;5053895;28;20978;-74
2021/06/17 10:42:26;;;;;;;6.83;3.90;;;33.00;99.90;;;;;;5059033;28;20414;-74
2021/06/17 10:44:55;;;;;;;5.53;4.07;;;33.10;99.90;;;;;;5074290;28;20476;-74
2021/06/17 10:47:47;;;;;;;13.63;4.43;;;33.20;99.90;;;;;;5053599;28;20461;-74
2021/06/17 10:50:17;;;;;;;4.50;4.10;;;33.30;99.90;;;;;;5054719;28;20478;-74
2021/06/17 10:52:45;;;;;;;4.70;4.20;;;33.40;99.90;;;;;;5054385;28;20403;-74
2021/06/17 10:55:22;;;;;;;16.63;5.00;;;33.40;99.90;;;;;;5054682;28;20390;-74
2021/06/17 10:57:54;;;;;;;6.23;4.50;;;33.50;99.90;;;;;;5054294;28;20877;-75
2021/06/17 11:00:28;;;;;;;8.23;3.87;;;33.70;99.90;;;;;;5054805;28;20399;-75
2021/06/17 11:02:59;;;;;;;11.07;4.70;;;33.80;99.90;;;;;;5054434;28;20415;-75
2021/06/17 11:05:33;;;;;;;6.33;3.90;;;33.90;99.90;;;;;;5054021;28;20394;-75
2021/06/17 11:08:21;;;;;;;6.07;3.90;;;33.90;99.90;;;;;;5052907;28;20839;-75
2021/06/17 11:10:49;;;;;;;8.33;4.37;;;34.10;99.90;;;;;;5054313;28;20878;-75
2021/06/17 11:13:37;;;;;;;4.30;3.90;;;34.10;99.90;;;;;;5054841;28;20413;-77
2021/06/17 11:16:11;;;;;;;4.37;3.97;;;34.10;99.90;;;;;;5054395;28;20399;-77
2021/06/17 11:21:22;;;;;;;4.30;3.87;;;34.10;99.90;;;;;;5054033;28;20391;-77
2021/06/17 11:23:54;;;;;;;4.73;4.10;;;34.10;99.90;;;;;;5054556;28;20395;-77
2021/06/17 11:26:41;;;;;;;9.10;4.20;;;34.10;99.90;;;;;;5054334;28;20767;-78
2021/06/17 11:29:21;;;;;;;30.40;4.90;;;34.10;99.90;;;;;;5011997;28;20427;-75
2021/06/17 11:31:51;;;;;;;12.20;4.40;;;34.10;99.90;;;;;;5012085;28;20420;-75
2021/06/17 11:34:29;;;;;;;5.90;4.13;;;34.10;99.90;;;;;;5012387;28;20420;-75
2021/06/17 11:37:04;;;;;;;5.13;4.67;;;34.30;99.90;;;;;;5011378;28;20436;-75
2021/06/17 11:39:34;;;;;;;4.70;4.00;;;34.40;99.90;;;;;;5012002;28;20501;-75
2021/06/17 11:42:20;;;;;;;7.40;4.40;;;34.50;99.90;;;;;;5011727;28;20921;-75
2021/06/17 11:45:10;;;;;;;5.70;4.20;;;34.60;99.90;;;;;;5012484;28;20443;-77
2021/06/17 11:47:50;;;;;;;4.13;3.73;;;34.60;99.90;;;;;;5010447;28;20510;-77
2021/06/17 11:50:45;;;;;;;4.90;4.40;;;34.70;99.90;;;;;;5006910;28;20428;-79
2021/06/17 11:53:20;;;;;;;5.23;4.33;;;34.80;99.90;;;;;;5007596;28;20432;-77
2021/06/17 11:55:49;;;;;;;9.33;5.03;;;34.70;99.90;;;;;;5009739;28;20431;-78
2021/06/17 11:58:15;;;;;;;4.67;4.27;;;34.80;99.90;;;;;;5009857;28;20599;-77
2021/06/17 12:00:41;;;;;;;6.03;4.23;;;35.00;99.90;;;;;;5010470;28;20523;-77
2021/06/17 12:03:22;;;;;;;6.20;4.47;;;34.90;99.90;;;;;;5009003;28;20170;-78
2021/06/17 12:05:48;;;;;;;5.07;4.53;;;34.90;99.90;;;;;;5018027;28;20215;-77
2021/06/17 12:08:14;;;;;;;16.13;4.77;;;35.00;99.90;;;;;;5047447;28;20450;-78
2021/06/17 12:10:42;;;;;;;5.40;4.57;;;35.10;99.90;;;;;;5046154;28;20464;-78
2021/06/17 12:13:10;;;;;;;5.13;4.67;;;35.10;99.90;;;;;;5052679;28;20665;-77
2021/06/17 12:15:40;;;;;;;7.67;4.97;;;35.10;99.90;;;;;;5052207;28;20414;-78
2021/06/17 12:18:06;;;;;;;10.40;4.73;;;35.10;99.90;;;;;;5052012;28;20419;-77
2021/06/17 12:20:33;;;;;;;11.03;4.73;;;35.20;99.90;;;;;;5052175;28;20399;-77
2021/06/17 12:22:59;;;;;;;5.77;4.77;;;35.30;99.90;;;;;;5051986;28;20455;-77
2021/06/17 12:25:27;;;;;;;5.30;4.77;;;35.40;99.90;;;;;;5052217;28;20474;-77
2021/06/17 12:27:53;;;;;;;7.80;4.70;;;35.40;99.90;;;;;;5051961;28;20251;-77
2021/06/17 12:30:34;;;;;;;5.27;4.77;;;35.40;99.90;;;;;;5052747;28;20874;-75
2021/06/17 12:33:08;;;;;;;5.83;4.60;;;35.50;99.90;;;;;;5051438;28;20892;-75
2021/06/17 12:35:50;;;;;;;9.27;5.07;;;35.70;99.90;;;;;;5051886;28;20398;-75
2021/06/17 12:38:38;;;;;;;5.80;4.97;;;35.80;99.90;;;;;;5050609;28;20794;-75
2021/06/17 12:41:16;;;;;;;6.43;4.13;;;35.80;99.90;;;;;;5068002;28;20633;-75
2021/06/17 12:43:44;;;;;;;9.73;4.60;;;35.70;99.90;;;;;;5053604;28;20831;-77
2021/06/17 12:46:10;;;;;;;8.50;4.70;;;35.70;99.90;;;;;;5052226;28;20446;-77
2021/06/17 12:54:10;;;;;;;5.80;4.80;;;36.00;99.90;;;;;;5052262;28;20444;-77
2021/06/17 12:57:00;;;;;;;5.67;4.40;;;36.10;99.90;;;;;;5051138;28;20395;-78
2021/06/17 12:59:43;;;;;;;5.77;4.60;;;36.20;99.90;;;;;;5053791;28;20438;-77
2021/06/17 13:02:11;;;;;;;7.93;4.23;;;36.20;99.90;;;;;;5055817;28;20448;-77
2021/06/17 13:04:38;;;;;;;4.53;4.13;;;36.30;99.90;;;;;;5058535;28;20813;-78
2021/06/17 13:07:18;;;;;;;5.27;4.50;;;36.30;99.90;;;;;;5035276;28;20404;-77
2021/06/17 13:09:43;;;;;;;5.63;4.30;;;36.50;99.90;;;;;;5035866;28;20738;-77
2021/06/17 13:12:16;;;;;;;4.60;4.20;;;36.50;99.90;;;;;;5035852;28;20488;-77
2021/06/17 13:15:17;;;;;;;8.40;4.30;;;36.60;99.90;;;;;;5035784;28;20167;-75
2021/06/17 13:17:48;;;;;;;5.17;4.47;;;36.60;99.90;;;;;;5036073;28;20388;-75
2021/06/17 13:20:19;;;;;;;6.73;4.40;;;36.80;99.90;;;;;;5035644;28;20439;-75
2021/06/17 13:22:52;;;;;;;12.80;4.30;;;36.80;99.90;;;;;;5035040;28;20406;-75
2021/06/17 13:25:32;;;;;;;7.60;4.37;;;36.80;99.90;;;;;;5035938;28;20757;-75
2021/06/17 13:28:00;;;;;;;7.93;4.17;;;36.70;99.90;;;;;;5035877;28;20392;-75
2021/06/17 13:30:29;;;;;;;5.53;4.10;;;36.80;99.90;;;;;;5035421;28;20387;-75
2021/06/17 13:32:55;;;;;;;13.93;3.80;;;36.70;99.90;;;;;;5039189;28;20434;-75
2021/06/17 13:35:21;;;;;;;7.47;4.43;;;36.70;99.90;;;;;;5046037;28;20420;-76
2021/06/17 13:37:47;;;;;;;6.90;4.10;;;36.70;99.90;;;;;;5047697;28;20439;-75
2021/06/17 13:40:13;;;;;;;4.77;4.27;;;36.70;99.90;;;;;;5045321;28;20446;-75
2021/06/17 13:42:39;;;;;;;5.17;4.00;;;36.90;99.90;;;;;;5053154;28;20775;-75
2021/06/17 13:45:06;;;;;;;8.60;4.30;;;37.00;99.90;;;;;;5060143;28;20688;-77
2021/06/17 13:47:32;;;;;;;4.20;3.80;;;;;;;;;;5054386;28;20756;-79
2021/06/17 13:50:03;;;;;;;5.40;4.27;;;36.70;99.90;;;;;;5051575;28;20494;-79
2021/06/17 13:52:28;;;;;;;5.20;3.60;;;36.80;99.90;;;;;;5040690;28;20438;-79
2021/06/17 13:54:54;;;;;;;6.13;4.13;;;37.00;99.90;;;;;;5044047;28;20418;-78
2021/06/17 13:57:20;;;;;;;4.43;3.70;;;37.20;99.90;;;;;;5054287;28;20189;-78
2021/06/17 13:59:45;;;;;;;5.07;4.10;;;37.20;99.90;;;;;;5055233;28;20318;-77
2021/06/17 14:02:12;;;;;;;18.33;5.30;;;37.50;99.90;;;;;;5054598;28;20289;-78
2021/06/17 14:04:39;;;;;;;5.07;4.07;;;37.70;99.90;;;;;;5054622;28;20157;-78
2021/06/17 14:07:06;;;;;;;20.73;5.80;;;37.70;99.90;;;;;;5054232;28;20403;-75
2021/06/17 14:09:32;;;;;;;6.63;4.03;;;37.70;99.90;;;;;;5054176;28;20409;-75